createdAt,value
2018-03-03T00:01:10.886Z,55.20
2018-03-03T00:03:38.345Z,55.30
2018-03-03T00:06:05.894Z,55.60
2018-03-03T00:08:33.454Z,55.90
2018-03-03T00:11:01.013Z,56.10
2018-03-03T00:13:28.424Z,56.20
2018-03-03T00:15:55.936Z,56.30
2018-03-03T00:18:23.486Z,56.50
2018-03-03T00:20:50.900Z,56.60
2018-03-03T00:23:19.132Z,56.70
2018-03-03T00:25:46.574Z,56.70
2018-03-03T00:28:14.040Z,56.70
2018-03-03T00:30:41.488Z,56.70
2018-03-03T00:33:08.933Z,56.80
2018-03-03T00:35:36.404Z,56.80
2018-03-03T00:38:03.964Z,56.80
2018-03-03T00:40:31.425Z,56.70
2018-03-03T00:42:58.980Z,56.60
2018-03-03T00:45:26.393Z,56.70
2018-03-03T00:47:54.717Z,56.50
2018-03-03T00:50:22.173Z,56.40
2018-03-03T00:52:49.594Z,56.40
2018-03-03T00:55:17.912Z,56.50
2018-03-03T00:57:45.341Z,56.40
2018-03-03T01:00:12.782Z,56.50
2018-03-03T01:02:40.991Z,57.10
2018-03-03T01:05:08.460Z,57.00
2018-03-03T01:07:35.894Z,57.20
2018-03-03T01:10:03.355Z,57.50
2018-03-03T01:12:30.821Z,57.80
2018-03-03T01:14:58.380Z,57.80
2018-03-03T01:17:25.827Z,57.80
2018-03-03T01:19:54.029Z,58.10
2018-03-03T01:22:21.467Z,58.10
2018-03-03T01:24:48.910Z,58.20
2018-03-03T01:27:16.393Z,58.20
2018-03-03T01:29:43.841Z,58.00
2018-03-03T01:32:11.323Z,57.80
2018-03-03T01:34:38.742Z,57.80
2018-03-03T01:37:06.224Z,57.70
2018-03-03T01:39:33.656Z,57.60
2018-03-03T01:42:01.139Z,57.40
2018-03-03T01:44:28.584Z,57.30
2018-03-03T01:46:56.012Z,57.10
2018-03-03T01:49:23.508Z,56.80
2018-03-03T01:51:50.969Z,56.80
2018-03-03T01:54:18.622Z,56.70
2018-03-03T01:56:46.041Z,56.60
2018-03-03T01:59:14.353Z,56.60
2018-03-03T02:01:41.773Z,56.50
2018-03-03T02:04:09.981Z,56.50
2018-03-03T02:06:37.445Z,56.40
2018-03-03T02:09:04.901Z,56.30
2018-03-03T02:11:32.328Z,56.30
2018-03-03T02:13:59.769Z,56.20
2018-03-03T02:16:28.090Z,56.20
2018-03-03T02:18:55.544Z,56.20
2018-03-03T02:21:22.958Z,56.10
2018-03-03T02:23:51.289Z,56.10
2018-03-03T02:26:18.725Z,56.10
2018-03-03T02:28:46.200Z,56.10
2018-03-03T02:31:13.666Z,56.10
2018-03-03T02:33:41.317Z,56.10
2018-03-03T02:36:08.729Z,56.20
2018-03-03T02:38:36.952Z,56.30
2018-03-03T02:41:04.502Z,56.30
2018-03-03T02:43:31.960Z,56.40
2018-03-03T02:45:59.436Z,56.50
2018-03-03T02:48:26.869Z,56.50
2018-03-03T02:50:54.437Z,56.60
2018-03-03T02:53:21.865Z,56.70
2018-03-03T02:55:49.299Z,56.80
2018-03-03T02:58:16.908Z,56.80
2018-03-03T03:00:44.369Z,56.80
2018-03-03T03:03:11.781Z,56.80
2018-03-03T03:05:40.015Z,56.60
2018-03-03T03:08:07.556Z,56.60
2018-03-03T03:10:35.015Z,56.60
2018-03-03T03:13:02.438Z,56.60
2018-03-03T03:15:30.758Z,56.30
2018-03-03T03:17:58.305Z,56.30
2018-03-03T03:20:25.766Z,56.30
2018-03-03T03:22:53.230Z,56.10
2018-03-03T03:25:20.664Z,56.10
2018-03-03T03:27:48.237Z,56.00
2018-03-03T03:30:15.661Z,55.80
2018-03-03T03:32:43.877Z,55.70
2018-03-03T03:35:11.325Z,55.70
2018-03-03T03:37:38.807Z,55.70
2018-03-03T03:40:06.252Z,55.70
2018-03-03T03:42:33.695Z,55.70
2018-03-03T03:45:01.164Z,55.60
2018-03-03T03:47:28.621Z,55.70
2018-03-03T03:49:56.066Z,55.80
2018-03-03T03:52:23.500Z,56.00
2018-03-03T03:54:51.693Z,56.30
2018-03-03T03:57:19.171Z,56.30
2018-03-03T03:59:46.613Z,56.50
2018-03-03T04:02:14.057Z,56.70
2018-03-03T04:04:41.495Z,56.90
2018-03-03T04:07:09.806Z,57.40
2018-03-03T04:09:37.272Z,57.30
2018-03-03T04:12:04.713Z,57.50
2018-03-03T04:14:32.187Z,57.70
2018-03-03T04:16:59.644Z,58.00
2018-03-03T04:19:27.106Z,58.20
2018-03-03T04:21:54.649Z,58.30
2018-03-03T04:24:22.106Z,58.50
2018-03-03T04:26:49.563Z,58.60
2018-03-03T04:29:17.019Z,58.90
2018-03-03T04:31:44.500Z,59.20
2018-03-03T04:34:12.047Z,59.60
2018-03-03T04:36:39.496Z,59.80
2018-03-03T04:39:06.941Z,60.10
2018-03-03T04:41:34.416Z,60.50
2018-03-03T04:44:01.853Z,61.10
2018-03-03T04:46:29.290Z,61.70
2018-03-03T04:48:57.600Z,62.80
2018-03-03T04:51:25.042Z,62.80
2018-03-03T04:53:52.478Z,63.40
2018-03-03T04:56:20.687Z,64.50
2018-03-03T04:58:54.181Z,64.50
2018-03-03T05:01:23.209Z,65.20
2018-03-03T05:03:53.502Z,65.40
2018-03-03T05:06:23.369Z,65.70
2018-03-03T05:08:50.804Z,66.00
2018-03-03T05:11:18.252Z,66.10
2018-03-03T05:13:45.689Z,66.10
2018-03-03T05:16:18.851Z,66.10
2018-03-03T05:18:52.992Z,66.60
2018-03-03T05:21:26.038Z,66.60
2018-03-03T05:23:56.189Z,67.00
2018-03-03T05:26:29.276Z,66.90
2018-03-03T05:29:02.482Z,67.00
2018-03-03T05:31:35.760Z,67.10
2018-03-03T05:34:08.968Z,67.30
2018-03-03T05:36:40.245Z,67.40
2018-03-03T05:39:13.493Z,67.50
2018-03-03T05:41:42.779Z,67.60
2018-03-03T05:44:16.841Z,67.70
2018-03-03T05:46:48.252Z,67.80
2018-03-03T05:49:21.417Z,67.70
2018-03-03T05:52:05.312Z,67.40
2018-03-03T05:54:48.483Z,67.30
2018-03-03T05:57:22.464Z,66.90
2018-03-03T05:59:57.569Z,66.90
2018-03-03T06:02:34.916Z,66.70
2018-03-03T06:05:13.071Z,66.50
2018-03-03T06:10:42.802Z,65.80
2018-03-03T06:13:10.220Z,66.30
2018-03-03T06:15:38.431Z,65.20
2018-03-03T06:18:05.890Z,65.20
2018-03-03T06:20:33.339Z,65.00
2018-03-03T06:23:00.907Z,64.70
2018-03-03T06:25:28.375Z,64.60
2018-03-03T06:27:55.803Z,64.50
2018-03-03T06:30:23.381Z,64.20
2018-03-03T06:32:50.795Z,63.90
2018-03-03T06:35:18.308Z,63.70
2018-03-03T06:37:45.752Z,63.60
2018-03-03T06:40:13.168Z,63.40
2018-03-03T06:42:41.402Z,62.90
2018-03-03T06:45:08.840Z,62.90
2018-03-03T06:47:36.275Z,62.50
2018-03-03T06:50:03.736Z,62.40
2018-03-03T06:52:31.944Z,61.60
2018-03-03T06:54:59.389Z,61.60
2018-03-03T06:57:26.844Z,61.20
2018-03-03T06:59:54.272Z,61.00
2018-03-03T07:02:21.705Z,60.60
2018-03-03T07:04:49.318Z,60.40
2018-03-03T07:07:16.724Z,61.00
2018-03-03T07:09:44.949Z,59.70
2018-03-03T07:12:12.372Z,59.60
2018-03-03T07:14:43.040Z,59.20
2018-03-03T07:17:10.599Z,59.20
2018-03-03T07:19:38.030Z,58.90
2018-03-03T07:22:05.501Z,58.80
2018-03-03T07:24:33.047Z,58.50
2018-03-03T07:27:00.509Z,58.30
2018-03-03T07:29:27.981Z,58.10
2018-03-03T07:31:55.408Z,58.10
2018-03-03T07:34:22.878Z,58.00
2018-03-03T07:36:50.338Z,57.90
2018-03-03T07:39:17.768Z,57.70
2018-03-03T07:41:45.217Z,57.60
2018-03-03T07:44:12.699Z,57.30
2018-03-03T07:46:40.259Z,57.20
2018-03-03T07:49:07.704Z,57.00
2018-03-03T07:51:35.184Z,56.80
2018-03-03T07:54:02.647Z,56.90
2018-03-03T07:56:42.172Z,56.80
2018-03-03T07:59:09.644Z,56.70
2018-03-03T08:01:37.097Z,56.50
2018-03-03T08:04:04.541Z,56.50
2018-03-03T08:06:32.000Z,56.40
2018-03-03T08:08:59.412Z,56.20
2018-03-03T08:11:27.733Z,56.10
2018-03-03T08:13:55.296Z,56.00
2018-03-03T08:16:22.717Z,56.00
2018-03-03T08:18:51.040Z,56.00
2018-03-03T08:21:18.468Z,55.90
2018-03-03T08:23:45.904Z,55.90
2018-03-03T08:26:14.136Z,55.90
2018-03-03T08:28:41.557Z,55.90
2018-03-03T08:31:08.993Z,55.80
2018-03-03T08:33:37.216Z,55.80
2018-03-03T08:36:04.764Z,55.80
2018-03-03T08:38:32.234Z,55.90
2018-03-03T08:40:59.675Z,55.70
2018-03-03T08:43:27.112Z,55.70
2018-03-03T08:45:54.577Z,55.80
2018-03-03T08:48:22.051Z,55.70
2018-03-03T08:50:49.469Z,55.70
2018-03-03T08:53:17.688Z,55.70
2018-03-03T08:55:45.239Z,55.60
2018-03-03T08:58:12.656Z,55.50
2018-03-03T09:00:40.870Z,55.50
2018-03-03T09:03:08.360Z,55.40
2018-03-03T09:05:35.801Z,55.30
2018-03-03T09:08:03.344Z,55.30
2018-03-03T09:10:30.791Z,55.10
2018-03-03T09:12:58.277Z,54.80
2018-03-03T09:15:25.737Z,54.80
2018-03-03T09:17:53.180Z,54.70
2018-03-03T09:20:20.649Z,54.70
2018-03-03T09:22:48.077Z,54.60
2018-03-03T09:25:15.553Z,54.60
2018-03-03T09:27:42.978Z,54.60
2018-03-03T09:30:10.476Z,54.60
2018-03-03T09:32:38.022Z,54.50
2018-03-03T09:35:05.454Z,55.10
2018-03-03T09:37:33.670Z,54.20
2018-03-03T09:40:01.212Z,54.20
2018-03-03T09:42:28.634Z,54.20
2018-03-03T09:44:56.871Z,54.20
2018-03-03T09:47:24.408Z,54.10
2018-03-03T09:49:51.860Z,54.00
2018-03-03T09:52:19.298Z,53.80
2018-03-03T09:54:46.774Z,53.80
2018-03-03T09:57:14.231Z,53.70
2018-03-03T09:59:41.687Z,53.60
2018-03-03T10:02:09.102Z,53.50
2018-03-03T10:04:36.656Z,53.40
2018-03-03T10:07:04.154Z,53.40
2018-03-03T10:09:31.639Z,53.30
2018-03-03T10:11:59.013Z,53.10
2018-03-03T10:14:26.450Z,53.00
2018-03-03T10:16:54.762Z,52.80
2018-03-03T10:19:22.231Z,52.80
2018-03-03T10:21:49.692Z,52.60
2018-03-03T10:24:17.181Z,52.60
2018-03-03T10:26:45.422Z,52.80
2018-03-03T10:29:12.864Z,52.80
2018-03-03T10:31:40.290Z,52.80
2018-03-03T10:34:08.485Z,53.00
2018-03-03T10:36:35.967Z,52.90
2018-03-03T10:39:03.405Z,52.90
2018-03-03T10:41:30.839Z,52.90
2018-03-03T10:43:59.045Z,53.50
2018-03-03T10:46:26.478Z,52.80
2018-03-03T10:48:53.907Z,52.70
2018-03-03T10:51:21.436Z,52.60
2018-03-03T10:53:48.868Z,53.30
2018-03-03T10:56:16.305Z,52.30
2018-03-03T10:58:43.737Z,51.90
2018-03-03T11:01:11.973Z,51.90
2018-03-03T11:03:39.412Z,51.60
2018-03-03T11:06:06.885Z,51.50
2018-03-03T11:08:34.330Z,51.30
2018-03-03T11:11:01.767Z,51.00
2018-03-03T11:13:29.249Z,50.70
2018-03-03T11:15:56.701Z,50.50
2018-03-03T11:18:24.119Z,50.40
2018-03-03T11:20:52.435Z,50.40
2018-03-03T11:23:19.928Z,50.40
2018-03-03T11:25:47.472Z,50.20
2018-03-03T11:28:14.945Z,50.20
2018-03-03T11:30:42.426Z,49.90
2018-03-03T11:33:09.826Z,49.70
2018-03-03T11:35:37.294Z,49.70
2018-03-03T11:38:04.741Z,49.80
2018-03-03T11:40:33.133Z,49.80
2018-03-03T11:42:59.655Z,49.90
2018-03-03T11:45:27.082Z,50.00
2018-03-03T11:47:55.289Z,49.90
2018-03-03T11:50:22.843Z,49.90
2018-03-03T11:52:50.252Z,50.00
2018-03-03T11:55:18.583Z,50.80
2018-03-03T11:57:45.988Z,50.10
2018-03-03T12:00:14.215Z,49.90
2018-03-03T12:02:41.676Z,49.80
2018-03-03T12:05:09.149Z,49.80
2018-03-03T12:07:36.608Z,49.80
2018-03-03T12:10:04.035Z,50.10
2018-03-03T12:12:31.508Z,50.40
2018-03-03T12:14:58.949Z,50.40
2018-03-03T12:17:26.387Z,50.30
2018-03-03T12:19:54.697Z,50.20
2018-03-03T12:22:22.154Z,50.10
2018-03-03T12:24:49.565Z,50.20
2018-03-03T12:27:17.794Z,50.40
2018-03-03T12:29:45.246Z,50.30
2018-03-03T12:32:12.724Z,50.40
2018-03-03T12:34:40.261Z,50.50
2018-03-03T12:37:07.715Z,50.70
2018-03-03T12:39:35.136Z,50.80
2018-03-03T12:42:03.333Z,50.80
2018-03-03T12:44:30.906Z,50.80
2018-03-03T12:46:58.376Z,50.70
2018-03-03T12:49:25.824Z,50.60
2018-03-03T12:51:53.276Z,50.40
2018-03-03T12:54:20.745Z,50.50
2018-03-03T12:56:48.191Z,50.70
2018-03-03T12:59:15.625Z,50.80
2018-03-03T13:01:43.835Z,50.90
2018-03-03T13:04:11.281Z,50.80
2018-03-03T13:06:38.717Z,50.90
2018-03-03T13:09:06.300Z,51.10
2018-03-03T13:11:33.762Z,51.20
2018-03-03T13:14:01.190Z,51.30
2018-03-03T13:16:28.638Z,51.30
2018-03-03T13:18:56.851Z,51.10
2018-03-03T13:21:24.298Z,51.10
2018-03-03T13:23:51.773Z,51.00
2018-03-03T13:26:19.219Z,50.80
2018-03-03T13:28:46.680Z,50.80
2018-03-03T13:31:14.132Z,50.90
2018-03-03T13:33:41.537Z,51.00
2018-03-03T13:36:09.117Z,50.90
2018-03-03T13:38:36.605Z,50.90
2018-03-03T13:41:04.158Z,50.80
2018-03-03T13:43:31.589Z,50.80
2018-03-03T13:45:59.017Z,50.80
2018-03-03T13:48:27.217Z,50.70
2018-03-03T13:50:54.680Z,50.70
2018-03-03T13:53:22.132Z,50.80
2018-03-03T13:55:49.562Z,50.80
2018-03-03T13:58:17.782Z,50.80
2018-03-03T14:00:45.228Z,50.80
2018-03-03T14:03:12.780Z,50.70
2018-03-03T14:05:40.188Z,50.60
2018-03-03T14:08:08.388Z,51.10
2018-03-03T14:10:35.825Z,50.50
2018-03-03T14:13:03.304Z,50.50
2018-03-03T14:15:30.737Z,50.70
2018-03-03T14:17:58.205Z,50.80
2018-03-03T14:20:25.677Z,50.90
2018-03-03T14:22:53.173Z,51.10
2018-03-03T14:25:20.532Z,51.10
2018-03-03T14:27:48.765Z,51.10
2018-03-03T14:30:16.193Z,51.10
2018-03-03T14:32:43.690Z,51.10
2018-03-03T14:35:11.121Z,51.10
2018-03-03T14:37:38.682Z,51.10
2018-03-03T14:40:06.097Z,51.20
2018-03-03T14:42:34.302Z,51.00
2018-03-03T14:45:01.725Z,51.00
2018-03-03T14:47:29.929Z,51.00
2018-03-03T14:49:57.375Z,51.00
2018-03-03T14:52:25.680Z,50.80
2018-03-03T14:54:53.238Z,50.80
2018-03-03T14:57:20.702Z,50.80
2018-03-03T14:59:48.852Z,50.90
2018-03-03T15:02:16.343Z,50.80
2018-03-03T15:04:43.789Z,50.90
2018-03-03T15:07:11.224Z,50.80
2018-03-03T15:09:38.707Z,50.80
2018-03-03T15:12:06.174Z,50.80
2018-03-03T15:14:33.613Z,50.90
2018-03-03T15:17:01.068Z,51.00
2018-03-03T15:19:28.627Z,51.10
2018-03-03T15:21:56.091Z,51.40
2018-03-03T15:24:23.557Z,51.50
2018-03-03T15:26:51.004Z,51.70
2018-03-03T15:29:18.456Z,51.80
2018-03-03T15:31:45.873Z,51.80
2018-03-03T15:34:14.117Z,52.10
2018-03-03T15:36:41.543Z,52.10
2018-03-03T15:39:08.961Z,52.10
2018-03-03T15:41:37.276Z,52.30
2018-03-03T15:44:04.740Z,52.30
2018-03-03T15:46:32.173Z,52.50
2018-03-03T15:48:59.626Z,52.60
2018-03-03T15:51:27.092Z,52.80
2018-03-03T15:53:55.294Z,53.80
2018-03-03T15:56:22.738Z,53.00
2018-03-03T15:58:50.174Z,53.10
2018-03-03T16:01:17.645Z,53.20
2018-03-03T16:03:45.091Z,53.40
2018-03-03T16:06:12.581Z,53.40
2018-03-03T16:08:40.022Z,53.50
2018-03-03T16:11:07.484Z,53.60
2018-03-03T16:13:34.965Z,53.60
2018-03-03T16:16:02.417Z,53.70
2018-03-03T16:18:29.853Z,53.80
2018-03-03T16:20:57.411Z,53.90
2018-03-03T16:23:24.896Z,54.00
2018-03-03T16:25:52.338Z,54.00
2018-03-03T16:28:19.840Z,54.00
2018-03-03T16:30:47.342Z,54.00
2018-03-03T16:33:14.837Z,54.00
2018-03-03T16:35:42.369Z,54.10
2018-03-03T16:38:09.804Z,54.20
2018-03-03T16:40:37.376Z,54.30
2018-03-03T16:43:04.784Z,54.30
2018-03-03T16:45:32.290Z,54.40
2018-03-03T16:47:59.712Z,54.40
2018-03-03T16:50:27.940Z,55.30
2018-03-03T16:52:55.482Z,54.60
2018-03-03T16:55:22.953Z,54.60
2018-03-03T16:57:50.498Z,54.70
2018-03-03T17:00:17.913Z,54.70
2018-03-03T17:02:46.231Z,54.80
2018-03-03T17:05:13.793Z,54.80
2018-03-03T17:07:41.247Z,54.70
2018-03-03T17:10:08.807Z,54.60
2018-03-03T17:12:36.289Z,54.70
2018-03-03T17:15:03.721Z,54.70
2018-03-03T17:17:31.137Z,54.80
2018-03-03T17:19:59.336Z,54.90
2018-03-03T17:22:26.769Z,54.90
2018-03-03T17:24:54.988Z,55.00
2018-03-03T17:27:22.425Z,54.90
2018-03-03T17:29:49.907Z,55.00
2018-03-03T17:32:17.340Z,54.80
2018-03-03T17:34:44.780Z,54.80
2018-03-03T17:37:12.987Z,54.90
2018-03-03T17:39:40.417Z,54.90
2018-03-03T17:42:07.921Z,54.90
2018-03-03T17:44:35.370Z,55.00
2018-03-03T17:47:02.814Z,55.10
2018-03-03T17:49:30.245Z,55.20
2018-03-03T17:51:58.549Z,55.40
2018-03-03T17:54:26.016Z,55.30
2018-03-03T17:56:53.461Z,55.40
2018-03-03T17:59:20.896Z,55.60
2018-03-03T18:01:48.385Z,55.60
2018-03-03T18:04:15.857Z,55.70
2018-03-03T18:06:43.296Z,55.70
2018-03-03T18:09:10.748Z,55.80
2018-03-03T18:11:38.216Z,55.90
2018-03-03T18:14:05.648Z,55.90
2018-03-03T18:16:33.121Z,56.00
2018-03-03T18:19:00.535Z,56.10
2018-03-03T18:21:28.855Z,57.10
2018-03-03T18:23:56.317Z,56.30
2018-03-03T18:26:23.776Z,56.50
2018-03-03T18:28:51.987Z,56.60
2018-03-03T18:31:19.480Z,56.50
2018-03-03T18:33:47.016Z,56.60
2018-03-03T18:36:14.455Z,56.60
2018-03-03T18:38:41.918Z,56.70
2018-03-03T18:41:09.332Z,56.80
2018-03-03T18:43:37.533Z,57.10
2018-03-03T18:46:04.980Z,56.90
2018-03-03T18:48:33.187Z,57.00
2018-03-03T18:51:00.843Z,57.00
2018-03-03T18:53:28.272Z,57.20
2018-03-03T18:55:56.511Z,57.30
2018-03-03T18:58:23.948Z,57.20
2018-03-03T19:00:51.425Z,58.00
2018-03-03T19:03:18.964Z,57.60
2018-03-03T19:05:46.397Z,57.70
2018-03-03T19:08:13.972Z,57.90
2018-03-03T19:10:41.560Z,58.60
2018-03-03T19:13:09.800Z,58.70
2018-03-03T19:15:37.229Z,58.70
2018-03-03T19:18:05.433Z,58.80
2018-03-03T19:20:32.861Z,58.80
2018-03-03T19:23:01.081Z,59.20
2018-03-03T19:25:28.526Z,59.20
2018-03-03T19:27:55.961Z,59.30
2018-03-03T19:30:23.408Z,59.50
2018-03-03T19:32:50.905Z,59.70
2018-03-03T19:35:18.341Z,59.80
2018-03-03T19:37:45.825Z,59.90
2018-03-03T19:40:13.265Z,60.10
2018-03-03T19:42:40.697Z,60.30
2018-03-03T19:45:08.144Z,60.50
2018-03-03T19:47:36.345Z,60.80
2018-03-03T19:50:03.783Z,60.80
2018-03-03T19:52:32.012Z,61.10
2018-03-03T19:54:59.557Z,61.00
2018-03-03T19:57:27.023Z,61.10
2018-03-03T19:59:54.473Z,61.40
2018-03-03T20:02:21.912Z,61.60
2018-03-03T20:04:49.384Z,61.70
2018-03-03T20:07:16.954Z,61.70
2018-03-03T20:09:44.394Z,61.90
2018-03-03T20:12:11.832Z,62.10
2018-03-03T20:14:39.408Z,62.30
2018-03-03T20:17:06.842Z,62.50
2018-03-03T20:19:35.145Z,62.80
2018-03-03T20:22:02.708Z,62.80
2018-03-03T20:24:30.141Z,62.90
2018-03-03T20:26:57.597Z,63.20
2018-03-03T20:29:25.085Z,63.30
2018-03-03T20:31:52.529Z,63.50
2018-03-03T20:34:20.020Z,63.70
2018-03-03T20:36:47.473Z,63.80
2018-03-03T20:39:14.982Z,63.90
2018-03-03T20:41:42.562Z,64.10
2018-03-03T20:44:10.042Z,64.10
2018-03-03T20:46:37.497Z,64.30
2018-03-03T20:49:04.932Z,64.30
2018-03-03T20:51:32.389Z,64.60
2018-03-03T20:53:59.847Z,64.70
2018-03-03T20:56:27.331Z,64.80
2018-03-03T20:58:54.796Z,64.90
2018-03-03T21:01:22.329Z,65.10
2018-03-03T21:03:49.882Z,65.20
2018-03-03T21:06:17.348Z,65.30
2018-03-03T21:08:45.112Z,65.40
2018-03-03T21:11:15.216Z,65.60
2018-03-03T21:13:42.618Z,65.70
2018-03-03T21:16:10.058Z,65.80
2018-03-03T21:18:37.657Z,66.00
2018-03-03T21:21:05.970Z,66.20
2018-03-03T21:23:33.429Z,66.20
2018-03-03T21:26:00.886Z,66.30
2018-03-03T21:28:28.321Z,66.30
2018-03-03T21:30:55.762Z,66.40
2018-03-03T21:33:23.967Z,66.70
2018-03-03T21:35:51.416Z,66.70
2018-03-03T21:38:18.857Z,66.80
2018-03-03T21:40:47.074Z,67.10
2018-03-03T21:43:14.552Z,67.10
2018-03-03T21:45:42.004Z,67.40
2018-03-03T21:48:09.461Z,67.50
2018-03-03T21:50:36.997Z,67.60
2018-03-03T21:53:04.417Z,67.70
2018-03-03T21:55:32.636Z,67.90
2018-03-03T21:58:00.105Z,67.90
2018-03-03T22:00:27.550Z,68.00
2018-03-03T22:02:55.007Z,68.10
2018-03-03T22:05:22.567Z,68.20
2018-03-03T22:07:50.038Z,68.30
2018-03-03T22:10:17.467Z,68.40
2018-03-03T22:12:44.938Z,68.60
2018-03-03T22:15:12.373Z,68.60
2018-03-03T22:17:39.830Z,68.70
2018-03-03T22:20:07.272Z,68.70
2018-03-03T22:22:34.761Z,68.80
2018-03-03T22:25:02.204Z,68.90
2018-03-03T22:27:29.657Z,69.00
2018-03-03T22:29:57.102Z,69.00
2018-03-03T22:32:24.583Z,69.10
2018-03-03T22:34:52.056Z,69.10
2018-03-03T22:37:19.501Z,69.20
2018-03-03T22:39:46.977Z,69.20
2018-03-03T22:42:14.425Z,69.30
2018-03-03T22:44:41.863Z,69.40
2018-03-03T22:47:09.306Z,69.50
2018-03-03T22:49:36.817Z,69.70
2018-03-03T22:52:04.357Z,69.70
2018-03-03T22:54:31.903Z,69.70
2018-03-03T22:56:59.332Z,69.90
2018-03-03T22:59:27.548Z,70.20
2018-03-03T23:01:54.986Z,70.10
2018-03-03T23:04:22.441Z,70.40
2018-03-03T23:06:50.008Z,70.60
2018-03-03T23:09:17.472Z,70.80
2018-03-03T23:11:45.025Z,71.00
2018-03-03T23:14:12.444Z,71.40
2018-03-03T23:16:40.678Z,72.00
2018-03-03T23:19:08.229Z,72.00
2018-03-03T23:21:35.661Z,72.10
2018-03-03T23:24:03.129Z,72.20
2018-03-03T23:26:30.597Z,72.60
2018-03-03T23:28:58.038Z,72.60
2018-03-03T23:31:25.512Z,72.80
2018-03-03T23:33:52.999Z,72.90
2018-03-03T23:36:20.533Z,73.00
2018-03-03T23:38:47.965Z,73.00
2018-03-03T23:41:15.445Z,73.10
2018-03-03T23:43:42.896Z,73.30
2018-03-03T23:46:10.345Z,73.50
2018-03-03T23:48:37.788Z,73.70
2018-03-03T23:51:05.261Z,73.80
2018-03-03T23:53:32.676Z,73.90
2018-03-03T23:56:00.899Z,74.00
2018-03-03T23:58:28.349Z,74.00
